createdAt,value
2019-01-18T00:00:55.963Z,19.43
2019-01-18T00:03:22.018Z,14.33
2019-01-18T00:05:48.051Z,21.10
2019-01-18T00:08:14.087Z,16.37
2019-01-18T00:10:40.146Z,17.07
2019-01-18T00:13:06.167Z,17.80
2019-01-18T00:15:32.221Z,18.17
2019-01-18T00:17:58.227Z,18.63
2019-01-18T00:20:24.242Z,15.03
2019-01-18T00:22:50.275Z,15.20
2019-01-18T00:25:16.305Z,23.93
2019-01-18T00:27:42.327Z,18.10
2019-01-18T00:30:16.764Z,14.07
2019-01-18T00:32:42.810Z,14.43
2019-01-18T00:35:08.867Z,13.33
2019-01-18T00:37:34.980Z,15.20
2019-01-18T00:40:01.070Z,12.57
2019-01-18T00:42:27.105Z,8.80
2019-01-18T00:44:53.115Z,13.60
2019-01-18T00:47:39.040Z,13.37
2019-01-18T00:50:08.855Z,14.73
2019-01-18T00:52:34.867Z,7.20
2019-01-18T00:55:00.920Z,12.77
2019-01-18T00:57:32.745Z,12.13
2019-01-18T00:59:58.779Z,15.77
2019-01-18T01:02:24.783Z,8.83
2019-01-18T01:04:50.820Z,14.40
2019-01-18T01:07:16.833Z,9.30
2019-01-18T01:09:42.865Z,9.83
2019-01-18T01:12:09.189Z,20.50
2019-01-18T01:14:35.214Z,13.50
2019-01-18T01:17:01.327Z,10.70
2019-01-18T01:19:27.363Z,11.23
2019-01-18T01:21:53.375Z,15.27
2019-01-18T01:24:19.431Z,9.13
2019-01-18T01:26:45.440Z,15.65
2019-01-18T01:29:11.455Z,17.27
2019-01-18T01:31:37.491Z,10.53
2019-01-18T01:34:03.503Z,15.17
2019-01-18T01:36:29.530Z,12.13
2019-01-18T01:38:55.615Z,18.50
2019-01-18T01:41:21.680Z,18.73
2019-01-18T01:43:47.692Z,18.03
2019-01-18T01:46:13.725Z,17.57
2019-01-18T01:48:39.835Z,11.37
2019-01-18T01:51:05.870Z,11.67
2019-01-18T01:53:31.903Z,15.17
2019-01-18T01:55:57.936Z,13.30
2019-01-18T01:58:23.951Z,14.47
2019-01-18T02:00:49.983Z,11.33
2019-01-18T02:03:16.021Z,16.83
2019-01-18T02:05:42.061Z,13.23
2019-01-18T02:08:08.091Z,14.17
2019-01-18T02:10:34.128Z,15.23
2019-01-18T02:13:00.163Z,15.33
2019-01-18T02:15:26.177Z,13.60
2019-01-18T02:17:52.198Z,14.00
2019-01-18T02:20:20.115Z,10.63
2019-01-18T02:22:46.135Z,15.87
2019-01-18T02:25:12.391Z,21.20
2019-01-18T02:27:38.736Z,19.73
2019-01-18T02:30:08.459Z,11.33
2019-01-18T02:32:34.511Z,18.77
2019-01-18T02:35:00.626Z,11.77
2019-01-18T02:37:26.670Z,18.27
2019-01-18T02:39:52.685Z,14.97
2019-01-18T02:42:18.716Z,10.27
2019-01-18T02:44:44.731Z,10.77
2019-01-18T02:47:10.795Z,13.40
2019-01-18T02:49:36.804Z,11.60
2019-01-18T02:52:02.828Z,19.77
2019-01-18T02:54:28.896Z,14.27
2019-01-18T02:56:54.907Z,13.10
2019-01-18T02:59:20.932Z,16.30
2019-01-18T03:01:46.973Z,14.80
2019-01-18T03:04:14.927Z,14.37
2019-01-18T03:06:40.935Z,12.77
2019-01-18T03:09:07.772Z,13.80
2019-01-18T03:11:33.820Z,17.67
2019-01-18T03:13:59.847Z,16.33
2019-01-18T03:16:25.879Z,15.77
2019-01-18T03:18:51.887Z,14.97
2019-01-18T03:21:17.909Z,19.80
2019-01-18T03:23:43.927Z,17.53
2019-01-18T03:26:10.033Z,17.17
2019-01-18T03:28:36.037Z,13.37
2019-01-18T03:31:02.073Z,14.20
2019-01-18T03:33:28.081Z,17.03
2019-01-18T03:35:54.108Z,11.93
2019-01-18T03:38:20.115Z,11.03
2019-01-18T03:40:46.150Z,12.83
2019-01-18T03:43:15.110Z,21.47
2019-01-18T03:45:41.154Z,16.07
2019-01-18T03:48:08.186Z,13.03
2019-01-18T03:50:34.236Z,15.20
2019-01-18T03:53:00.253Z,14.63
2019-01-18T03:55:26.289Z,10.83
2019-01-18T03:57:52.299Z,9.73
2019-01-18T04:00:25.658Z,14.63
2019-01-18T04:02:48.548Z,14.90
2019-01-18T04:05:14.568Z,12.27
2019-01-18T04:07:40.605Z,15.37
2019-01-18T04:10:15.169Z,15.47
2019-01-18T04:12:41.272Z,17.83
2019-01-18T04:15:10.082Z,23.30
2019-01-18T04:17:36.107Z,22.77
2019-01-18T04:20:10.774Z,22.70
2019-01-18T04:22:36.822Z,22.00
2019-01-18T04:25:06.232Z,19.00
2019-01-18T04:27:32.240Z,13.60
2019-01-18T04:29:58.444Z,18.30
2019-01-18T04:32:24.460Z,17.73
2019-01-18T04:34:50.478Z,14.03
2019-01-18T04:37:16.500Z,17.97
2019-01-18T04:39:42.608Z,17.07
2019-01-18T04:42:08.636Z,19.00
2019-01-18T04:44:34.662Z,17.40
2019-01-18T04:47:00.696Z,12.47
2019-01-18T04:49:26.724Z,14.97
2019-01-18T04:51:52.753Z,13.40
2019-01-18T04:54:18.824Z,11.60
2019-01-18T04:56:44.882Z,21.87
2019-01-18T04:59:10.906Z,11.70
2019-01-18T05:01:36.915Z,13.50
2019-01-18T05:04:02.940Z,15.47
2019-01-18T05:06:29.243Z,14.13
2019-01-18T05:08:55.318Z,15.90
2019-01-18T05:11:21.371Z,21.47
2019-01-18T05:13:47.484Z,10.90
2019-01-18T05:16:13.896Z,15.43
2019-01-18T05:18:39.943Z,12.07
2019-01-18T05:21:05.980Z,15.93
2019-01-18T05:23:32.076Z,14.93
2019-01-18T05:25:58.180Z,17.43
2019-01-18T05:28:24.199Z,12.03
2019-01-18T05:30:50.212Z,16.03
2019-01-18T05:33:16.272Z,17.25
2019-01-18T05:35:42.317Z,23.63
2019-01-18T05:38:08.339Z,17.40
2019-01-18T05:40:34.368Z,19.50
2019-01-18T05:43:00.413Z,27.00
2019-01-18T05:45:26.520Z,18.93
2019-01-18T05:47:52.530Z,17.10
2019-01-18T05:50:24.261Z,18.73
2019-01-18T05:52:50.284Z,18.80
2019-01-18T05:55:16.284Z,14.63
2019-01-18T05:57:42.421Z,17.93
2019-01-18T06:00:13.141Z,22.30
2019-01-18T06:02:39.164Z,17.50
2019-01-18T06:05:28.882Z,24.50
2019-01-18T06:07:54.928Z,22.70
2019-01-18T06:10:20.947Z,18.13
2019-01-18T06:12:46.979Z,17.97
2019-01-18T06:15:12.993Z,20.33
2019-01-18T06:17:39.028Z,17.97
2019-01-18T06:20:08.931Z,19.63
2019-01-18T06:22:34.963Z,20.73
2019-01-18T06:25:01.001Z,27.07
2019-01-18T06:27:27.025Z,27.33
2019-01-18T06:29:53.079Z,24.90
2019-01-18T06:32:19.110Z,21.50
2019-01-18T06:34:45.135Z,23.47
2019-01-18T06:37:11.176Z,13.20
2019-01-18T06:39:37.191Z,18.17
2019-01-18T06:42:03.212Z,16.87
2019-01-18T06:44:29.256Z,21.57
2019-01-18T06:46:55.272Z,19.53
2019-01-18T06:49:21.331Z,19.80
2019-01-18T06:51:47.364Z,19.67
2019-01-18T06:54:13.372Z,20.30
2019-01-18T06:56:39.412Z,23.83
2019-01-18T06:59:05.437Z,20.93
2019-01-18T07:01:33.633Z,16.27
2019-01-18T07:03:59.642Z,17.63
2019-01-18T07:06:25.687Z,19.27
2019-01-18T07:08:51.707Z,10.50
2019-01-18T07:11:17.728Z,17.87
2019-01-18T07:13:43.760Z,20.23
2019-01-18T07:16:09.794Z,14.53
2019-01-18T07:18:35.884Z,21.17
2019-01-18T07:21:01.897Z,16.17
2019-01-18T07:23:27.933Z,17.63
2019-01-18T07:25:54.044Z,17.20
2019-01-18T07:28:20.085Z,17.83
2019-01-18T07:30:46.527Z,20.67
2019-01-18T07:33:12.562Z,22.63
2019-01-18T07:35:38.574Z,20.30
2019-01-18T07:38:04.611Z,12.27
2019-01-18T07:40:30.637Z,14.53
2019-01-18T07:42:56.639Z,22.07
2019-01-18T07:45:28.412Z,18.73
2019-01-18T07:47:54.505Z,16.53
2019-01-18T07:50:20.539Z,20.93
2019-01-18T07:52:46.562Z,16.47
2019-01-18T07:55:12.592Z,14.10
2019-01-18T07:57:38.623Z,27.13
2019-01-18T08:00:14.340Z,23.27
2019-01-18T08:02:40.359Z,21.13
2019-01-18T08:05:07.700Z,14.60
2019-01-18T08:07:33.737Z,21.83
2019-01-18T08:09:59.768Z,20.90
2019-01-18T08:12:25.785Z,18.60
2019-01-18T08:14:51.828Z,18.10
2019-01-18T08:17:17.860Z,24.00
2019-01-18T08:19:43.928Z,17.13
2019-01-18T08:22:09.967Z,18.40
2019-01-18T08:24:36.027Z,21.33
2019-01-18T08:27:02.068Z,18.93
2019-01-18T08:29:28.084Z,26.17
2019-01-18T08:31:54.119Z,16.60
2019-01-18T08:34:20.123Z,22.23
2019-01-18T08:36:46.160Z,22.17
2019-01-18T08:39:12.182Z,20.90
2019-01-18T08:41:38.253Z,19.90
2019-01-18T08:44:04.268Z,18.67
2019-01-18T08:46:30.281Z,23.97
2019-01-18T08:48:56.316Z,27.53
2019-01-18T08:51:22.332Z,21.83
2019-01-18T08:53:48.364Z,25.57
2019-01-18T08:56:14.379Z,18.27
2019-01-18T08:58:40.660Z,23.15
2019-01-18T09:01:06.673Z,21.10
2019-01-18T09:03:32.687Z,19.90
2019-01-18T09:05:58.715Z,17.10
2019-01-18T09:08:24.735Z,23.33
2019-01-18T09:10:50.768Z,21.53
2019-01-18T09:13:16.780Z,15.73
2019-01-18T09:15:42.826Z,26.17
2019-01-18T09:18:08.857Z,16.60
2019-01-18T09:20:34.876Z,22.27
2019-01-18T09:23:00.890Z,13.77
2019-01-18T09:25:26.955Z,31.37
2019-01-18T09:27:52.964Z,19.23
2019-01-18T09:30:27.715Z,31.63
2019-01-18T09:32:53.756Z,30.27
2019-01-18T09:35:24.729Z,18.53
2019-01-18T09:37:51.259Z,36.63
2019-01-18T09:40:28.502Z,28.27
2019-01-18T09:42:54.531Z,28.70
2019-01-18T09:45:20.591Z,27.30
2019-01-18T09:47:46.605Z,19.23
2019-01-18T09:50:18.637Z,19.50
2019-01-18T09:52:44.848Z,18.20
2019-01-18T09:55:10.893Z,15.67
2019-01-18T09:57:36.899Z,18.00
2019-01-18T10:00:09.539Z,16.20
2019-01-18T10:02:35.559Z,19.30
2019-01-18T10:05:01.668Z,21.13
2019-01-18T10:07:27.680Z,21.40
2019-01-18T10:09:53.731Z,14.30
2019-01-18T10:12:19.738Z,16.90
2019-01-18T10:14:45.834Z,16.83
2019-01-18T10:17:11.897Z,28.70
2019-01-18T10:19:37.915Z,18.47
2019-01-18T10:22:03.965Z,18.43
2019-01-18T10:24:29.999Z,20.90
2019-01-18T10:26:56.074Z,21.70
2019-01-18T10:29:27.988Z,19.70
2019-01-18T10:31:55.889Z,22.90
2019-01-18T10:34:18.013Z,25.27
2019-01-18T10:36:44.052Z,21.77
2019-01-18T10:39:10.070Z,21.70
2019-01-18T10:41:36.209Z,20.63
2019-01-18T10:44:05.932Z,17.90
2019-01-18T10:46:30.235Z,14.93
2019-01-18T10:48:56.245Z,21.43
2019-01-18T10:51:22.279Z,17.87
2019-01-18T10:53:48.292Z,16.93
2019-01-18T10:56:14.324Z,23.10
2019-01-18T10:58:40.365Z,17.60
2019-01-18T11:01:06.392Z,23.17
2019-01-18T11:03:32.543Z,14.53
2019-01-18T11:05:58.547Z,20.70
2019-01-18T11:08:24.579Z,17.13
2019-01-18T11:10:50.596Z,19.60
2019-01-18T11:13:16.627Z,29.77
2019-01-18T11:15:42.638Z,11.47
2019-01-18T11:18:08.671Z,15.00
2019-01-18T11:20:44.418Z,15.20
2019-01-18T11:23:10.423Z,11.03
2019-01-18T11:25:36.465Z,17.73
2019-01-18T11:28:02.480Z,11.43
2019-01-18T11:30:28.496Z,9.73
2019-01-18T11:32:54.527Z,13.33
2019-01-18T11:35:20.544Z,17.07
2019-01-18T11:37:46.592Z,12.17
2019-01-18T11:40:15.009Z,11.53
2019-01-18T11:42:41.040Z,8.03
2019-01-18T11:45:09.051Z,13.47
2019-01-18T11:47:35.088Z,10.60
2019-01-18T11:50:01.508Z,15.67
2019-01-18T11:52:27.519Z,15.17
2019-01-18T11:54:53.561Z,14.47
2019-01-18T11:57:19.567Z,12.33
2019-01-18T11:59:49.088Z,12.20
2019-01-18T12:02:16.152Z,15.30
2019-01-18T12:04:41.477Z,12.60
2019-01-18T12:07:07.487Z,8.07
2019-01-18T12:09:33.515Z,12.27
2019-01-18T12:11:59.547Z,12.65
2019-01-18T12:14:25.567Z,14.47
2019-01-18T12:16:51.595Z,14.20
2019-01-18T12:19:17.707Z,9.90
2019-01-18T12:21:43.736Z,7.87
2019-01-18T12:24:09.746Z,12.27
2019-01-18T12:26:35.781Z,10.47
2019-01-18T12:29:01.852Z,9.57
2019-01-18T12:31:27.848Z,9.83
2019-01-18T12:33:53.864Z,12.33
2019-01-18T12:36:19.900Z,5.20
2019-01-18T12:38:45.917Z,7.10
2019-01-18T12:41:11.939Z,17.47
2019-01-18T12:43:37.961Z,11.33
2019-01-18T12:46:04.000Z,10.13
2019-01-18T12:48:30.067Z,7.17
2019-01-18T12:50:56.091Z,8.40
2019-01-18T12:53:22.136Z,7.63
2019-01-18T12:55:48.148Z,6.50
2019-01-18T12:58:14.195Z,4.73
2019-01-18T13:00:40.235Z,12.20
2019-01-18T13:03:06.260Z,6.43
2019-01-18T13:05:40.500Z,11.80
2019-01-18T13:08:06.512Z,9.33
2019-01-18T13:10:32.579Z,10.47
2019-01-18T13:12:58.591Z,8.20
2019-01-18T13:15:31.596Z,12.23
2019-01-18T13:17:57.643Z,7.47
2019-01-18T13:20:23.651Z,11.03
2019-01-18T13:22:49.695Z,8.37
2019-01-18T13:25:16.807Z,12.33
2019-01-18T13:27:42.927Z,11.50
2019-01-18T13:30:12.279Z,8.80
2019-01-18T13:32:41.659Z,10.13
2019-01-18T13:35:07.458Z,10.40
2019-01-18T13:37:33.460Z,5.57
2019-01-18T13:39:59.502Z,8.43
2019-01-18T13:42:25.517Z,7.60
2019-01-18T13:44:51.556Z,10.10
2019-01-18T13:47:19.076Z,7.63
2019-01-18T13:49:45.520Z,13.57
2019-01-18T13:52:12.697Z,6.57
2019-01-18T13:54:38.721Z,8.30
2019-01-18T13:57:04.728Z,6.83
2019-01-18T13:59:30.832Z,6.43
2019-01-18T14:01:56.868Z,4.83
2019-01-18T14:04:22.884Z,11.50
2019-01-18T14:06:48.912Z,6.37
2019-01-18T14:09:14.973Z,10.00
2019-01-18T14:11:41.003Z,4.30
2019-01-18T14:14:07.072Z,6.50
2019-01-18T14:16:33.161Z,9.07
2019-01-18T14:18:59.164Z,9.47
2019-01-18T14:21:25.191Z,5.60
2019-01-18T14:23:52.285Z,11.50
2019-01-18T14:26:18.308Z,4.77
2019-01-18T14:28:44.352Z,4.63
2019-01-18T14:31:10.364Z,4.50
2019-01-18T14:33:36.416Z,4.67
2019-01-18T14:36:03.491Z,5.53
2019-01-18T14:38:29.525Z,5.20
2019-01-18T14:40:55.539Z,12.23
2019-01-18T14:43:22.789Z,6.70
2019-01-18T14:45:48.876Z,10.53
2019-01-18T14:48:14.916Z,9.47
2019-01-18T14:50:40.922Z,9.90
2019-01-18T14:53:06.961Z,6.57
2019-01-18T14:55:33.776Z,6.13
2019-01-18T14:58:00.016Z,5.53
2019-01-18T15:00:29.804Z,6.03
2019-01-18T15:03:02.019Z,7.73
2019-01-18T15:05:23.857Z,9.67
2019-01-18T15:07:49.896Z,6.70
2019-01-18T15:10:19.144Z,6.30
2019-01-18T15:12:49.438Z,5.23
2019-01-18T15:15:15.482Z,7.33
2019-01-18T15:17:42.791Z,9.80
2019-01-18T15:20:15.392Z,4.40
2019-01-18T15:22:41.408Z,5.43
2019-01-18T15:25:07.468Z,9.00
2019-01-18T15:27:33.481Z,8.97
2019-01-18T15:29:59.612Z,10.77
2019-01-18T15:32:25.625Z,9.27
2019-01-18T15:34:51.660Z,10.37
2019-01-18T15:37:17.672Z,7.07
2019-01-18T15:39:43.729Z,8.07
2019-01-18T15:42:09.751Z,5.83
2019-01-18T15:44:35.764Z,8.03
2019-01-18T15:47:01.896Z,13.78
2019-01-18T15:49:27.911Z,9.07
2019-01-18T15:51:53.939Z,8.30
2019-01-18T15:54:19.947Z,9.13
2019-01-18T15:56:45.957Z,5.73
2019-01-18T15:59:11.975Z,12.43
2019-01-18T16:01:38.020Z,8.37
2019-01-18T16:04:04.107Z,17.23
2019-01-18T16:06:30.145Z,6.73
2019-01-18T16:08:56.154Z,10.80
2019-01-18T16:11:23.224Z,9.07
2019-01-18T16:13:49.235Z,4.83
2019-01-18T16:16:16.555Z,7.10
2019-01-18T16:18:42.590Z,5.17
2019-01-18T16:21:08.625Z,6.17
2019-01-18T16:23:34.635Z,8.83
2019-01-18T16:26:00.700Z,3.77
2019-01-18T16:28:26.751Z,6.73
2019-01-18T16:30:52.774Z,17.60
2019-01-18T16:33:40.596Z,8.30
2019-01-18T16:36:06.639Z,5.43
2019-01-18T16:38:32.667Z,4.37
2019-01-18T16:40:58.703Z,11.80
2019-01-18T16:43:28.247Z,5.57
2019-01-18T16:45:55.379Z,11.40
2019-01-18T16:48:21.393Z,10.50
2019-01-18T16:50:47.439Z,7.70
2019-01-18T16:53:13.460Z,9.47
2019-01-18T16:55:39.476Z,9.60
2019-01-18T16:58:05.504Z,9.07
2019-01-18T17:00:41.392Z,11.20
2019-01-18T17:03:07.440Z,18.77
2019-01-18T17:05:33.547Z,9.63
2019-01-18T17:07:59.580Z,9.57
2019-01-18T17:10:25.611Z,8.97
2019-01-18T17:12:51.667Z,7.63
2019-01-18T17:15:17.677Z,12.43
2019-01-18T17:17:43.708Z,7.50
2019-01-18T17:20:19.575Z,11.57
2019-01-18T17:22:45.610Z,7.57
2019-01-18T17:25:11.640Z,4.33
2019-01-18T17:27:37.648Z,10.43
2019-01-18T17:30:07.483Z,7.70
2019-01-18T17:32:33.536Z,8.90
2019-01-18T17:34:59.556Z,18.23
2019-01-18T17:37:25.597Z,16.77
2019-01-18T17:39:51.744Z,7.70
2019-01-18T17:42:45.833Z,15.67
2019-01-18T17:45:44.497Z,8.97
2019-01-18T17:48:34.104Z,15.50
2019-01-18T17:51:10.738Z,20.33
2019-01-18T17:57:13.542Z,16.90
2019-01-18T18:00:12.421Z,16.70
2019-01-18T18:03:00.772Z,14.60
2019-01-18T18:06:02.196Z,15.97
2019-01-18T18:08:53.565Z,19.73
2019-01-18T18:11:47.065Z,22.17
2019-01-18T18:14:35.385Z,26.90
2019-01-18T18:17:11.052Z,23.57
2019-01-18T18:20:06.869Z,20.90
2019-01-18T18:22:45.988Z,25.77
2019-01-18T18:25:44.960Z,25.20
2019-01-18T18:28:50.986Z,30.43
2019-01-18T18:31:54.129Z,21.97
2019-01-18T18:34:53.747Z,20.20
2019-01-18T18:37:38.978Z,20.87
2019-01-18T18:40:12.630Z,16.57
2019-01-18T18:42:45.257Z,19.40
2019-01-18T18:45:33.002Z,15.53
2019-01-18T18:48:22.111Z,15.80
2019-01-18T18:51:01.070Z,20.27
2019-01-18T18:54:04.836Z,23.83
2019-01-18T18:56:57.376Z,15.83
2019-01-18T18:59:48.390Z,18.37
2019-01-18T19:02:29.803Z,12.57
2019-01-18T19:05:14.720Z,10.33
2019-01-18T19:08:16.957Z,7.63
2019-01-18T19:11:03.747Z,11.03
2019-01-18T19:13:33.580Z,8.47
2019-01-18T19:16:20.000Z,10.03
2019-01-18T19:19:02.175Z,10.73
2019-01-18T19:21:37.800Z,15.53
2019-01-18T19:24:32.143Z,12.50
2019-01-18T19:27:08.283Z,12.93
2019-01-18T19:29:49.710Z,12.27
2019-01-18T19:32:22.562Z,17.40
2019-01-18T19:34:52.406Z,16.17
2019-01-18T19:37:22.335Z,21.10
2019-01-18T19:40:07.216Z,14.33
2019-01-18T19:42:46.053Z,17.93
2019-01-18T19:45:33.787Z,24.10
2019-01-18T19:48:15.636Z,20.27
2019-01-18T19:51:04.703Z,22.07
2019-01-18T19:53:43.387Z,23.80
2019-01-18T19:56:27.999Z,23.57
2019-01-18T19:59:16.287Z,22.47
2019-01-18T20:01:54.908Z,20.43
2019-01-18T20:04:37.101Z,23.63
2019-01-18T20:07:13.202Z,25.83
2019-01-18T20:09:58.904Z,18.60
2019-01-18T20:12:40.574Z,21.37
2019-01-18T20:15:14.895Z,24.30
2019-01-18T20:17:53.792Z,26.13
2019-01-18T20:20:38.843Z,29.57
2019-01-18T20:23:47.152Z,27.17
2019-01-18T20:26:32.029Z,26.67
2019-01-18T20:29:22.807Z,22.77
2019-01-18T20:32:18.764Z,19.63
2019-01-18T20:35:11.540Z,17.10
2019-01-18T20:37:47.456Z,20.13
2019-01-18T20:40:24.152Z,20.20
2019-01-18T20:43:10.843Z,20.17
2019-01-18T20:45:52.501Z,18.60
2019-01-18T20:48:43.126Z,29.30
2019-01-18T20:51:21.799Z,24.30
2019-01-18T20:53:54.719Z,24.83
2019-01-18T20:56:33.460Z,20.67
2019-01-18T20:59:03.301Z,21.63
2019-01-18T21:02:07.668Z,32.63
2019-01-18T21:04:49.239Z,22.20
2019-01-18T21:07:43.463Z,23.33
2019-01-18T21:10:43.462Z,17.50
2019-01-18T21:13:27.940Z,25.77
2019-01-18T21:16:17.304Z,25.30
2019-01-18T21:19:22.220Z,20.77
2019-01-18T21:22:26.257Z,21.97
2019-01-18T21:24:59.131Z,24.80
2019-01-18T21:27:38.263Z,26.97
2019-01-18T21:30:35.396Z,28.60
2019-01-18T21:33:14.215Z,30.15
2019-01-18T21:35:52.943Z,28.65
2019-01-18T21:38:43.128Z,26.50
2019-01-18T21:41:15.141Z,24.90
2019-01-18T21:44:03.176Z,29.43
2019-01-18T21:46:54.028Z,25.03
2019-01-18T21:49:24.024Z,26.03
2019-01-18T21:51:54.089Z,33.10
2019-01-18T21:54:23.961Z,30.93
2019-01-18T21:57:15.355Z,29.13
2019-01-18T21:59:57.132Z,15.47
2019-01-18T22:02:29.868Z,17.57
2019-01-18T22:05:30.514Z,19.17
2019-01-18T22:08:19.561Z,20.83
2019-01-18T22:10:52.573Z,17.83
2019-01-18T22:13:31.568Z,20.43
2019-01-18T22:16:10.735Z,17.70
2019-01-18T22:18:46.426Z,21.73
2019-01-18T22:21:31.519Z,24.83
2019-01-18T22:24:01.368Z,24.67
2019-01-18T22:26:31.189Z,22.57
2019-01-18T22:29:30.239Z,32.03
2019-01-18T22:32:21.353Z,28.67
2019-01-18T22:35:12.345Z,32.03
2019-01-18T22:37:55.397Z,25.10
2019-01-18T22:40:37.047Z,28.97
2019-01-18T22:43:21.758Z,27.23
2019-01-18T22:45:51.588Z,28.43
2019-01-18T22:48:24.357Z,29.07
2019-01-18T22:51:03.359Z,30.53
2019-01-18T22:53:38.963Z,30.17
2019-01-18T22:56:42.801Z,26.70
2019-01-18T22:59:36.718Z,32.77
2019-01-18T23:02:26.469Z,29.32
2019-01-18T23:05:14.721Z,26.13
2019-01-18T23:07:56.619Z,31.30
2019-01-18T23:10:32.764Z,28.03
2019-01-18T23:13:17.695Z,24.07
2019-01-18T23:16:04.359Z,28.10
2019-01-18T23:18:52.679Z,25.43
2019-01-18T23:21:37.823Z,25.93
2019-01-18T23:24:07.669Z,31.30
2019-01-18T23:27:02.151Z,30.40
2019-01-18T23:29:40.952Z,20.80
2019-01-18T23:32:28.952Z,27.63
2019-01-18T23:35:16.563Z,31.90
2019-01-18T23:37:50.525Z,21.77
2019-01-18T23:40:20.417Z,26.60
2019-01-18T23:43:14.056Z,24.97
2019-01-18T23:46:06.759Z,23.60
2019-01-18T23:48:45.849Z,27.40
2019-01-18T23:51:27.768Z,25.47
2019-01-18T23:54:15.743Z,28.63
2019-01-18T23:56:45.587Z,27.00
2019-01-18T23:59:44.210Z,34.20
